sensor_id;sensor_type;location;lat;lon;timestamp;temperature;humidity
17887;DHT22;9069;52.044;7.472;2023-07-31T00:01:34;20.20;96.00
17887;DHT22;9069;52.044;7.472;2023-07-31T00:04:01;20.20;95.90
17887;DHT22;9069;52.044;7.472;2023-07-31T00:06:28;20.20;95.90
17887;DHT22;9069;52.044;7.472;2023-07-31T00:08:54;20.10;95.90
17887;DHT22;9069;52.044;7.472;2023-07-31T00:11:21;20.10;95.90
17887;DHT22;9069;52.044;7.472;2023-07-31T00:13:48;20.10;95.90
17887;DHT22;9069;52.044;7.472;2023-07-31T00:16:15;20.10;95.80
17887;DHT22;9069;52.044;7.472;2023-07-31T00:18:41;20.10;95.80
17887;DHT22;9069;52.044;7.472;2023-07-31T00:21:08;20.00;95.80
17887;DHT22;9069;52.044;7.472;2023-07-31T00:23:35;20.10;95.90
17887;DHT22;9069;52.044;7.472;2023-07-31T00:26:02;20.00;95.90
17887;DHT22;9069;52.044;7.472;2023-07-31T00:28:28;20.00;95.90
17887;DHT22;9069;52.044;7.472;2023-07-31T00:30:55;20.00;95.90
17887;DHT22;9069;52.044;7.472;2023-07-31T00:33:25;20.00;95.90
17887;DHT22;9069;52.044;7.472;2023-07-31T00:35:52;20.00;95.90
17887;DHT22;9069;52.044;7.472;2023-07-31T00:38:18;19.90;95.90
17887;DHT22;9069;52.044;7.472;2023-07-31T00:40:45;19.90;95.80
17887;DHT22;9069;52.044;7.472;2023-07-31T00:43:12;19.90;95.90
17887;DHT22;9069;52.044;7.472;2023-07-31T00:45:40;19.90;95.90
17887;DHT22;9069;52.044;7.472;2023-07-31T00:48:07;19.90;95.90
17887;DHT22;9069;52.044;7.472;2023-07-31T00:50:35;19.90;96.00
17887;DHT22;9069;52.044;7.472;2023-07-31T00:53:02;19.80;96.00
17887;DHT22;9069;52.044;7.472;2023-07-31T00:55:29;19.90;96.10
17887;DHT22;9069;52.044;7.472;2023-07-31T00:57:56;19.80;96.10
17887;DHT22;9069;52.044;7.472;2023-07-31T01:00:23;19.80;96.10
17887;DHT22;9069;52.044;7.472;2023-07-31T01:02:51;19.80;96.20
17887;DHT22;9069;52.044;7.472;2023-07-31T01:05:29;19.80;96.30
17887;DHT22;9069;52.044;7.472;2023-07-31T01:08:15;19.80;96.60
17887;DHT22;9069;52.044;7.472;2023-07-31T01:10:58;19.80;96.80
17887;DHT22;9069;52.044;7.472;2023-07-31T01:13:26;19.80;96.80
17887;DHT22;9069;52.044;7.472;2023-07-31T01:15:54;19.80;96.40
17887;DHT22;9069;52.044;7.472;2023-07-31T01:18:21;19.80;96.50
17887;DHT22;9069;52.044;7.472;2023-07-31T01:20:57;19.80;96.50
17887;DHT22;9069;52.044;7.472;2023-07-31T01:23:35;19.70;96.80
17887;DHT22;9069;52.044;7.472;2023-07-31T01:26:12;19.70;96.50
17887;DHT22;9069;52.044;7.472;2023-07-31T01:31:24;19.70;96.90
17887;DHT22;9069;52.044;7.472;2023-07-31T01:33:53;19.70;96.80
17887;DHT22;9069;52.044;7.472;2023-07-31T01:36:22;19.70;96.80
17887;DHT22;9069;52.044;7.472;2023-07-31T01:38:49;19.70;96.80
17887;DHT22;9069;52.044;7.472;2023-07-31T01:41:17;19.70;96.80
17887;DHT22;9069;52.044;7.472;2023-07-31T01:43:48;19.70;96.90
17887;DHT22;9069;52.044;7.472;2023-07-31T01:46:15;19.60;97.10
17887;DHT22;9069;52.044;7.472;2023-07-31T01:48:41;19.60;97.00
17887;DHT22;9069;52.044;7.472;2023-07-31T01:51:08;19.60;97.00
17887;DHT22;9069;52.044;7.472;2023-07-31T01:53:35;19.60;97.10
17887;DHT22;9069;52.044;7.472;2023-07-31T01:56:02;19.60;97.10
17887;DHT22;9069;52.044;7.472;2023-07-31T01:58:30;19.60;97.10
17887;DHT22;9069;52.044;7.472;2023-07-31T02:00:56;19.60;97.10
17887;DHT22;9069;52.044;7.472;2023-07-31T02:03:23;19.60;97.20
17887;DHT22;9069;52.044;7.472;2023-07-31T02:05:54;19.60;97.20
17887;DHT22;9069;52.044;7.472;2023-07-31T02:08:20;19.60;97.30
17887;DHT22;9069;52.044;7.472;2023-07-31T02:10:47;19.60;97.30
17887;DHT22;9069;52.044;7.472;2023-07-31T02:13:15;19.60;97.30
17887;DHT22;9069;52.044;7.472;2023-07-31T02:15:41;19.60;97.40
17887;DHT22;9069;52.044;7.472;2023-07-31T02:18:08;19.60;97.40
17887;DHT22;9069;52.044;7.472;2023-07-31T02:20:35;19.60;97.50
17887;DHT22;9069;52.044;7.472;2023-07-31T02:23:02;19.60;97.50
17887;DHT22;9069;52.044;7.472;2023-07-31T02:25:29;19.60;97.60
17887;DHT22;9069;52.044;7.472;2023-07-31T02:27:56;19.60;97.70
17887;DHT22;9069;52.044;7.472;2023-07-31T02:30:23;19.60;97.80
17887;DHT22;9069;52.044;7.472;2023-07-31T02:32:50;19.60;97.80
17887;DHT22;9069;52.044;7.472;2023-07-31T02:35:17;19.60;97.90
17887;DHT22;9069;52.044;7.472;2023-07-31T02:37:45;19.60;98.00
17887;DHT22;9069;52.044;7.472;2023-07-31T02:40:12;19.60;98.00
17887;DHT22;9069;52.044;7.472;2023-07-31T02:42:39;19.60;98.10
17887;DHT22;9069;52.044;7.472;2023-07-31T02:45:07;19.60;98.20
17887;DHT22;9069;52.044;7.472;2023-07-31T02:47:33;19.60;98.20
17887;DHT22;9069;52.044;7.472;2023-07-31T02:50:02;19.60;98.40
17887;DHT22;9069;52.044;7.472;2023-07-31T02:52:29;19.60;98.40
17887;DHT22;9069;52.044;7.472;2023-07-31T02:54:57;19.60;98.40
17887;DHT22;9069;52.044;7.472;2023-07-31T02:57:24;19.70;98.60
17887;DHT22;9069;52.044;7.472;2023-07-31T02:59:50;19.70;98.60
17887;DHT22;9069;52.044;7.472;2023-07-31T03:02:17;19.70;98.70
17887;DHT22;9069;52.044;7.472;2023-07-31T03:04:44;19.70;98.70
17887;DHT22;9069;52.044;7.472;2023-07-31T03:07:11;19.70;98.80
17887;DHT22;9069;52.044;7.472;2023-07-31T03:09:37;19.70;98.80
17887;DHT22;9069;52.044;7.472;2023-07-31T03:12:04;19.70;98.80
17887;DHT22;9069;52.044;7.472;2023-07-31T03:14:31;19.80;98.80
17887;DHT22;9069;52.044;7.472;2023-07-31T03:16:59;19.80;98.90
17887;DHT22;9069;52.044;7.472;2023-07-31T03:19:26;19.80;98.90
17887;DHT22;9069;52.044;7.472;2023-07-31T03:21:52;19.80;98.90
17887;DHT22;9069;52.044;7.472;2023-07-31T03:24:19;19.80;98.90
17887;DHT22;9069;52.044;7.472;2023-07-31T03:26:46;19.80;98.90
17887;DHT22;9069;52.044;7.472;2023-07-31T03:29:12;19.80;98.90
17887;DHT22;9069;52.044;7.472;2023-07-31T03:31:39;19.80;98.90
17887;DHT22;9069;52.044;7.472;2023-07-31T03:34:06;19.90;98.90
17887;DHT22;9069;52.044;7.472;2023-07-31T03:36:33;19.90;98.90
17887;DHT22;9069;52.044;7.472;2023-07-31T03:38:59;19.90;98.90
17887;DHT22;9069;52.044;7.472;2023-07-31T03:41:26;19.90;98.90
17887;DHT22;9069;52.044;7.472;2023-07-31T03:43:53;19.90;98.90
17887;DHT22;9069;52.044;7.472;2023-07-31T03:46:24;19.90;98.90
17887;DHT22;9069;52.044;7.472;2023-07-31T03:48:51;19.90;98.90
17887;DHT22;9069;52.044;7.472;2023-07-31T03:51:18;19.90;98.90
17887;DHT22;9069;52.044;7.472;2023-07-31T03:53:45;19.90;98.90
17887;DHT22;9069;52.044;7.472;2023-07-31T03:56:12;19.90;98.80
17887;DHT22;9069;52.044;7.472;2023-07-31T03:58:38;19.90;98.80
17887;DHT22;9069;52.044;7.472;2023-07-31T04:01:05;19.90;98.80
17887;DHT22;9069;52.044;7.472;2023-07-31T04:03:32;19.90;98.70
17887;DHT22;9069;52.044;7.472;2023-07-31T04:05:59;19.90;98.80
17887;DHT22;9069;52.044;7.472;2023-07-31T04:08:26;19.90;98.80
17887;DHT22;9069;52.044;7.472;2023-07-31T04:10:52;19.90;98.70
17887;DHT22;9069;52.044;7.472;2023-07-31T04:13:19;19.90;98.70
17887;DHT22;9069;52.044;7.472;2023-07-31T04:15:49;19.90;98.60
17887;DHT22;9069;52.044;7.472;2023-07-31T04:18:17;19.90;98.70
17887;DHT22;9069;52.044;7.472;2023-07-31T04:20:44;19.90;98.60
17887;DHT22;9069;52.044;7.472;2023-07-31T04:23:11;19.90;98.50
17887;DHT22;9069;52.044;7.472;2023-07-31T04:25:38;19.90;98.50
17887;DHT22;9069;52.044;7.472;2023-07-31T04:28:04;19.90;98.50
17887;DHT22;9069;52.044;7.472;2023-07-31T04:30:31;19.90;98.50
17887;DHT22;9069;52.044;7.472;2023-07-31T04:32:58;19.80;98.50
17887;DHT22;9069;52.044;7.472;2023-07-31T04:35:26;19.90;98.50
17887;DHT22;9069;52.044;7.472;2023-07-31T04:37:53;19.80;98.40
17887;DHT22;9069;52.044;7.472;2023-07-31T04:40:20;19.90;98.50
17887;DHT22;9069;52.044;7.472;2023-07-31T04:42:47;19.80;98.40
17887;DHT22;9069;52.044;7.472;2023-07-31T04:45:14;19.80;98.40
17887;DHT22;9069;52.044;7.472;2023-07-31T04:47:41;19.80;98.40
17887;DHT22;9069;52.044;7.472;2023-07-31T04:50:08;19.90;98.40
17887;DHT22;9069;52.044;7.472;2023-07-31T04:52:35;19.80;98.60
17887;DHT22;9069;52.044;7.472;2023-07-31T04:55:01;19.80;98.30
17887;DHT22;9069;52.044;7.472;2023-07-31T04:57:29;19.80;98.60
17887;DHT22;9069;52.044;7.472;2023-07-31T04:59:56;20.00;98.40
17887;DHT22;9069;52.044;7.472;2023-07-31T05:02:22;19.80;98.30
17887;DHT22;9069;52.044;7.472;2023-07-31T05:04:49;19.80;98.30
17887;DHT22;9069;52.044;7.472;2023-07-31T05:07:16;19.80;98.30
17887;DHT22;9069;52.044;7.472;2023-07-31T05:09:43;19.80;98.30
17887;DHT22;9069;52.044;7.472;2023-07-31T05:12:10;19.80;98.30
17887;DHT22;9069;52.044;7.472;2023-07-31T05:14:37;19.80;98.20
17887;DHT22;9069;52.044;7.472;2023-07-31T05:17:04;19.80;98.20
17887;DHT22;9069;52.044;7.472;2023-07-31T05:19:30;19.80;98.20
17887;DHT22;9069;52.044;7.472;2023-07-31T05:21:57;19.80;98.20
17887;DHT22;9069;52.044;7.472;2023-07-31T05:24:24;19.80;98.20
17887;DHT22;9069;52.044;7.472;2023-07-31T05:26:51;19.80;98.30
17887;DHT22;9069;52.044;7.472;2023-07-31T05:29:17;19.80;98.30
17887;DHT22;9069;52.044;7.472;2023-07-31T05:31:44;19.80;98.30
17887;DHT22;9069;52.044;7.472;2023-07-31T05:34:11;19.80;98.30
17887;DHT22;9069;52.044;7.472;2023-07-31T05:36:38;19.80;98.30
17887;DHT22;9069;52.044;7.472;2023-07-31T05:39:05;19.80;98.30
17887;DHT22;9069;52.044;7.472;2023-07-31T05:41:35;19.80;98.30
17887;DHT22;9069;52.044;7.472;2023-07-31T05:44:02;19.80;98.30
17887;DHT22;9069;52.044;7.472;2023-07-31T05:46:29;19.80;98.30
17887;DHT22;9069;52.044;7.472;2023-07-31T05:48:58;19.80;98.30
17887;DHT22;9069;52.044;7.472;2023-07-31T05:51:27;19.80;98.30
17887;DHT22;9069;52.044;7.472;2023-07-31T05:53:54;19.80;98.30
17887;DHT22;9069;52.044;7.472;2023-07-31T05:56:21;19.80;98.30
17887;DHT22;9069;52.044;7.472;2023-07-31T05:58:48;19.90;98.40
17887;DHT22;9069;52.044;7.472;2023-07-31T06:01:16;19.90;98.50
17887;DHT22;9069;52.044;7.472;2023-07-31T06:03:43;19.90;98.50
17887;DHT22;9069;52.044;7.472;2023-07-31T06:06:11;19.90;98.40
17887;DHT22;9069;52.044;7.472;2023-07-31T06:08:37;19.90;98.40
17887;DHT22;9069;52.044;7.472;2023-07-31T06:11:04;19.90;98.50
17887;DHT22;9069;52.044;7.472;2023-07-31T06:13:32;19.90;98.50
17887;DHT22;9069;52.044;7.472;2023-07-31T06:15:58;19.90;98.60
17887;DHT22;9069;52.044;7.472;2023-07-31T06:18:26;19.90;98.60
17887;DHT22;9069;52.044;7.472;2023-07-31T06:20:52;19.90;98.70
17887;DHT22;9069;52.044;7.472;2023-07-31T06:23:20;19.90;98.80
17887;DHT22;9069;52.044;7.472;2023-07-31T06:25:47;19.90;98.80
17887;DHT22;9069;52.044;7.472;2023-07-31T06:28:14;19.90;98.80
17887;DHT22;9069;52.044;7.472;2023-07-31T06:30:41;19.90;98.80
17887;DHT22;9069;52.044;7.472;2023-07-31T06:33:08;19.90;98.90
17887;DHT22;9069;52.044;7.472;2023-07-31T06:35:35;20.00;98.90
17887;DHT22;9069;52.044;7.472;2023-07-31T06:38:02;20.00;99.00
17887;DHT22;9069;52.044;7.472;2023-07-31T06:40:30;20.00;99.00
17887;DHT22;9069;52.044;7.472;2023-07-31T06:42:56;20.00;99.00
17887;DHT22;9069;52.044;7.472;2023-07-31T06:45:23;20.00;99.00
17887;DHT22;9069;52.044;7.472;2023-07-31T06:47:50;20.00;99.00
17887;DHT22;9069;52.044;7.472;2023-07-31T06:50:17;20.00;99.00
17887;DHT22;9069;52.044;7.472;2023-07-31T06:52:43;20.10;99.00
17887;DHT22;9069;52.044;7.472;2023-07-31T06:55:18;20.10;99.00
17887;DHT22;9069;52.044;7.472;2023-07-31T06:57:46;20.10;99.10
17887;DHT22;9069;52.044;7.472;2023-07-31T07:00:13;20.10;99.00
17887;DHT22;9069;52.044;7.472;2023-07-31T07:02:40;20.20;99.00
17887;DHT22;9069;52.044;7.472;2023-07-31T07:05:08;20.20;99.00
17887;DHT22;9069;52.044;7.472;2023-07-31T07:07:35;20.20;99.10
17887;DHT22;9069;52.044;7.472;2023-07-31T07:10:02;20.20;99.10
17887;DHT22;9069;52.044;7.472;2023-07-31T07:12:31;20.20;99.10
17887;DHT22;9069;52.044;7.472;2023-07-31T07:14:58;20.20;99.20
17887;DHT22;9069;52.044;7.472;2023-07-31T07:17:26;20.20;99.20
17887;DHT22;9069;52.044;7.472;2023-07-31T07:19:53;20.20;99.30
17887;DHT22;9069;52.044;7.472;2023-07-31T07:22:20;20.20;99.30
17887;DHT22;9069;52.044;7.472;2023-07-31T07:24:46;20.20;99.40
17887;DHT22;9069;52.044;7.472;2023-07-31T07:27:13;20.20;99.40
17887;DHT22;9069;52.044;7.472;2023-07-31T07:29:40;20.20;99.50
17887;DHT22;9069;52.044;7.472;2023-07-31T07:32:07;20.20;99.50
17887;DHT22;9069;52.044;7.472;2023-07-31T07:34:34;20.20;99.60
17887;DHT22;9069;52.044;7.472;2023-07-31T07:37:01;20.30;99.60
17887;DHT22;9069;52.044;7.472;2023-07-31T07:39:27;20.30;99.70
17887;DHT22;9069;52.044;7.472;2023-07-31T07:41:54;20.30;99.70
17887;DHT22;9069;52.044;7.472;2023-07-31T07:44:21;20.30;99.60
17887;DHT22;9069;52.044;7.472;2023-07-31T07:46:48;20.30;99.60
17887;DHT22;9069;52.044;7.472;2023-07-31T07:49:15;20.30;99.70
17887;DHT22;9069;52.044;7.472;2023-07-31T07:51:41;20.40;99.80
17887;DHT22;9069;52.044;7.472;2023-07-31T07:54:08;20.40;99.90
17887;DHT22;9069;52.044;7.472;2023-07-31T07:56:35;20.40;99.90
17887;DHT22;9069;52.044;7.472;2023-07-31T07:59:03;20.40;99.90
17887;DHT22;9069;52.044;7.472;2023-07-31T08:01:30;20.50;99.90
17887;DHT22;9069;52.044;7.472;2023-07-31T08:03:58;20.50;99.90
17887;DHT22;9069;52.044;7.472;2023-07-31T08:06:25;20.60;99.90
17887;DHT22;9069;52.044;7.472;2023-07-31T08:08:51;20.60;99.90
17887;DHT22;9069;52.044;7.472;2023-07-31T08:11:18;20.70;99.90
17887;DHT22;9069;52.044;7.472;2023-07-31T08:13:45;20.70;99.90
17887;DHT22;9069;52.044;7.472;2023-07-31T08:16:12;20.70;99.90
17887;DHT22;9069;52.044;7.472;2023-07-31T08:18:38;20.70;99.90
17887;DHT22;9069;52.044;7.472;2023-07-31T08:21:07;20.80;99.90
17887;DHT22;9069;52.044;7.472;2023-07-31T08:23:34;20.80;99.90
17887;DHT22;9069;52.044;7.472;2023-07-31T08:26:00;20.80;99.90
17887;DHT22;9069;52.044;7.472;2023-07-31T08:28:27;20.90;99.90
17887;DHT22;9069;52.044;7.472;2023-07-31T08:30:54;20.90;99.90
17887;DHT22;9069;52.044;7.472;2023-07-31T08:33:21;20.80;99.90
17887;DHT22;9069;52.044;7.472;2023-07-31T08:35:47;20.90;99.90
17887;DHT22;9069;52.044;7.472;2023-07-31T08:38:14;20.90;99.90
17887;DHT22;9069;52.044;7.472;2023-07-31T08:40:41;20.90;99.90
17887;DHT22;9069;52.044;7.472;2023-07-31T08:43:09;20.90;99.90
17887;DHT22;9069;52.044;7.472;2023-07-31T08:45:35;21.00;99.90
17887;DHT22;9069;52.044;7.472;2023-07-31T08:48:03;20.90;99.90
17887;DHT22;9069;52.044;7.472;2023-07-31T08:50:30;21.00;99.90
17887;DHT22;9069;52.044;7.472;2023-07-31T08:52:57;21.00;99.90
17887;DHT22;9069;52.044;7.472;2023-07-31T08:55:24;21.10;99.90
17887;DHT22;9069;52.044;7.472;2023-07-31T08:57:52;21.10;99.90
17887;DHT22;9069;52.044;7.472;2023-07-31T09:00:20;21.10;99.90
17887;DHT22;9069;52.044;7.472;2023-07-31T09:02:59;21.20;99.90
17887;DHT22;9069;52.044;7.472;2023-07-31T09:05:29;21.20;99.90
17887;DHT22;9069;52.044;7.472;2023-07-31T09:07:57;21.20;99.90
17887;DHT22;9069;52.044;7.472;2023-07-31T09:10:24;21.30;99.90
17887;DHT22;9069;52.044;7.472;2023-07-31T09:12:51;21.30;99.90
17887;DHT22;9069;52.044;7.472;2023-07-31T09:15:19;21.30;99.90
17887;DHT22;9069;52.044;7.472;2023-07-31T09:18:03;21.40;99.90
17887;DHT22;9069;52.044;7.472;2023-07-31T09:20:30;21.30;99.90
17887;DHT22;9069;52.044;7.472;2023-07-31T09:23:08;21.40;99.90
17887;DHT22;9069;52.044;7.472;2023-07-31T09:25:36;21.40;99.90
17887;DHT22;9069;52.044;7.472;2023-07-31T09:28:08;21.40;99.80
17887;DHT22;9069;52.044;7.472;2023-07-31T09:30:47;21.40;99.80
17887;DHT22;9069;52.044;7.472;2023-07-31T09:33:14;21.40;99.90
17887;DHT22;9069;52.044;7.472;2023-07-31T09:35:42;21.40;99.90
17887;DHT22;9069;52.044;7.472;2023-07-31T09:38:13;21.40;99.90
17887;DHT22;9069;52.044;7.472;2023-07-31T09:43:13;21.40;99.80
17887;DHT22;9069;52.044;7.472;2023-07-31T09:45:44;21.40;99.80
17887;DHT22;9069;52.044;7.472;2023-07-31T09:48:13;21.40;99.80
17887;DHT22;9069;52.044;7.472;2023-07-31T09:50:44;21.40;99.80
17887;DHT22;9069;52.044;7.472;2023-07-31T09:53:11;21.40;99.70
17887;DHT22;9069;52.044;7.472;2023-07-31T09:55:39;21.40;99.70
17887;DHT22;9069;52.044;7.472;2023-07-31T09:58:12;21.40;99.80
17887;DHT22;9069;52.044;7.472;2023-07-31T10:00:39;21.50;99.90
17887;DHT22;9069;52.044;7.472;2023-07-31T10:03:08;21.50;99.90
17887;DHT22;9069;52.044;7.472;2023-07-31T10:05:37;21.50;99.90
17887;DHT22;9069;52.044;7.472;2023-07-31T10:08:07;21.50;99.90
17887;DHT22;9069;52.044;7.472;2023-07-31T10:10:37;21.60;99.80
17887;DHT22;9069;52.044;7.472;2023-07-31T10:13:08;21.60;99.70
17887;DHT22;9069;52.044;7.472;2023-07-31T10:15:36;21.60;99.70
17887;DHT22;9069;52.044;7.472;2023-07-31T10:18:02;21.60;99.70
17887;DHT22;9069;52.044;7.472;2023-07-31T10:20:32;21.70;99.70
17887;DHT22;9069;52.044;7.472;2023-07-31T10:22:59;21.70;99.70
17887;DHT22;9069;52.044;7.472;2023-07-31T10:25:26;21.70;99.60
17887;DHT22;9069;52.044;7.472;2023-07-31T10:27:54;21.70;99.50
17887;DHT22;9069;52.044;7.472;2023-07-31T10:30:25;21.80;99.50
17887;DHT22;9069;52.044;7.472;2023-07-31T10:32:53;21.70;99.50
17887;DHT22;9069;52.044;7.472;2023-07-31T10:35:21;21.70;99.40
17887;DHT22;9069;52.044;7.472;2023-07-31T10:37:52;21.70;99.40
17887;DHT22;9069;52.044;7.472;2023-07-31T10:40:24;21.70;99.40
17887;DHT22;9069;52.044;7.472;2023-07-31T10:42:56;21.70;99.40
17887;DHT22;9069;52.044;7.472;2023-07-31T10:45:36;21.70;99.40
17887;DHT22;9069;52.044;7.472;2023-07-31T10:50:36;21.70;99.40
17887;DHT22;9069;52.044;7.472;2023-07-31T10:53:04;21.70;99.40
17887;DHT22;9069;52.044;7.472;2023-07-31T10:55:31;21.70;99.50
17887;DHT22;9069;52.044;7.472;2023-07-31T10:58:10;21.70;99.60
17887;DHT22;9069;52.044;7.472;2023-07-31T11:00:42;21.70;99.70
17887;DHT22;9069;52.044;7.472;2023-07-31T11:03:13;21.70;99.70
17887;DHT22;9069;52.044;7.472;2023-07-31T11:10:51;21.70;99.60
17887;DHT22;9069;52.044;7.472;2023-07-31T11:13:18;21.70;99.60
17887;DHT22;9069;52.044;7.472;2023-07-31T11:15:45;21.70;99.60
17887;DHT22;9069;52.044;7.472;2023-07-31T11:18:11;21.80;99.60
17887;DHT22;9069;52.044;7.472;2023-07-31T11:20:39;21.70;99.60
17887;DHT22;9069;52.044;7.472;2023-07-31T11:23:07;21.70;99.60
17887;DHT22;9069;52.044;7.472;2023-07-31T11:25:35;21.70;99.60
17887;DHT22;9069;52.044;7.472;2023-07-31T11:28:06;21.70;99.60
17887;DHT22;9069;52.044;7.472;2023-07-31T11:30:34;21.70;99.70
17887;DHT22;9069;52.044;7.472;2023-07-31T11:33:03;21.70;99.70
17887;DHT22;9069;52.044;7.472;2023-07-31T11:35:31;21.70;99.70
17887;DHT22;9069;52.044;7.472;2023-07-31T11:37:59;21.70;99.70
17887;DHT22;9069;52.044;7.472;2023-07-31T11:40:26;21.80;99.80
17887;DHT22;9069;52.044;7.472;2023-07-31T11:43:03;21.70;99.70
17887;DHT22;9069;52.044;7.472;2023-07-31T11:45:31;21.70;99.70
17887;DHT22;9069;52.044;7.472;2023-07-31T11:47:59;21.70;99.60
17887;DHT22;9069;52.044;7.472;2023-07-31T11:50:27;21.80;99.70
17887;DHT22;9069;52.044;7.472;2023-07-31T11:52:58;21.70;99.70
17887;DHT22;9069;52.044;7.472;2023-07-31T11:55:26;21.70;99.70
17887;DHT22;9069;52.044;7.472;2023-07-31T11:57:54;21.70;99.70
17887;DHT22;9069;52.044;7.472;2023-07-31T12:00:21;21.70;99.80
17887;DHT22;9069;52.044;7.472;2023-07-31T12:02:49;21.70;99.80
17887;DHT22;9069;52.044;7.472;2023-07-31T12:05:16;21.80;99.80
17887;DHT22;9069;52.044;7.472;2023-07-31T12:07:54;21.80;99.90
17887;DHT22;9069;52.044;7.472;2023-07-31T12:13:03;21.80;99.90
17887;DHT22;9069;52.044;7.472;2023-07-31T12:15:45;21.80;99.90
17887;DHT22;9069;52.044;7.472;2023-07-31T12:18:19;21.80;99.90
17887;DHT22;9069;52.044;7.472;2023-07-31T12:23:36;21.80;99.90
17887;DHT22;9069;52.044;7.472;2023-07-31T12:26:03;21.90;99.90
17887;DHT22;9069;52.044;7.472;2023-07-31T12:28:34;21.90;99.90
17887;DHT22;9069;52.044;7.472;2023-07-31T12:31:02;21.90;99.90
17887;DHT22;9069;52.044;7.472;2023-07-31T12:33:33;22.00;99.90
17887;DHT22;9069;52.044;7.472;2023-07-31T12:36:02;22.00;99.90
17887;DHT22;9069;52.044;7.472;2023-07-31T12:38:30;22.00;99.90
17887;DHT22;9069;52.044;7.472;2023-07-31T12:40:57;22.00;99.80
17887;DHT22;9069;52.044;7.472;2023-07-31T12:43:24;22.00;99.80
17887;DHT22;9069;52.044;7.472;2023-07-31T12:45:51;22.00;99.80
17887;DHT22;9069;52.044;7.472;2023-07-31T12:48:18;22.10;99.70
17887;DHT22;9069;52.044;7.472;2023-07-31T12:50:45;22.10;99.80
17887;DHT22;9069;52.044;7.472;2023-07-31T12:53:11;22.10;99.80
17887;DHT22;9069;52.044;7.472;2023-07-31T12:55:38;22.10;99.70
17887;DHT22;9069;52.044;7.472;2023-07-31T12:58:05;22.10;99.70
17887;DHT22;9069;52.044;7.472;2023-07-31T13:00:31;22.10;99.70
17887;DHT22;9069;52.044;7.472;2023-07-31T13:02:59;22.10;99.70
17887;DHT22;9069;52.044;7.472;2023-07-31T13:05:27;22.10;99.70
17887;DHT22;9069;52.044;7.472;2023-07-31T13:07:54;22.10;99.60
17887;DHT22;9069;52.044;7.472;2023-07-31T13:10:22;22.10;99.60
17887;DHT22;9069;52.044;7.472;2023-07-31T13:12:50;22.20;99.70
17887;DHT22;9069;52.044;7.472;2023-07-31T13:15:16;22.20;99.70
17887;DHT22;9069;52.044;7.472;2023-07-31T13:17:43;22.20;99.70
17887;DHT22;9069;52.044;7.472;2023-07-31T13:20:10;22.20;99.70
17887;DHT22;9069;52.044;7.472;2023-07-31T13:22:37;22.20;99.60
17887;DHT22;9069;52.044;7.472;2023-07-31T13:25:04;22.30;99.60
17887;DHT22;9069;52.044;7.472;2023-07-31T13:27:31;22.30;99.60
17887;DHT22;9069;52.044;7.472;2023-07-31T13:29:58;22.30;99.60
17887;DHT22;9069;52.044;7.472;2023-07-31T13:32:25;22.30;99.50
17887;DHT22;9069;52.044;7.472;2023-07-31T13:34:52;22.30;99.40
17887;DHT22;9069;52.044;7.472;2023-07-31T13:37:19;22.40;99.40
17887;DHT22;9069;52.044;7.472;2023-07-31T13:39:46;22.40;99.40
17887;DHT22;9069;52.044;7.472;2023-07-31T13:42:12;22.40;99.40
17887;DHT22;9069;52.044;7.472;2023-07-31T13:44:40;22.40;99.30
17887;DHT22;9069;52.044;7.472;2023-07-31T13:47:07;22.50;99.40
17887;DHT22;9069;52.044;7.472;2023-07-31T13:49:35;22.50;99.40
17887;DHT22;9069;52.044;7.472;2023-07-31T13:52:02;22.50;99.30
17887;DHT22;9069;52.044;7.472;2023-07-31T13:54:29;22.60;99.30
17887;DHT22;9069;52.044;7.472;2023-07-31T13:56:57;22.60;99.30
17887;DHT22;9069;52.044;7.472;2023-07-31T13:59:24;22.70;99.20
17887;DHT22;9069;52.044;7.472;2023-07-31T14:01:50;22.70;99.10
17887;DHT22;9069;52.044;7.472;2023-07-31T14:04:17;22.70;99.00
17887;DHT22;9069;52.044;7.472;2023-07-31T14:06:44;22.80;99.10
17887;DHT22;9069;52.044;7.472;2023-07-31T14:09:11;22.80;99.00
17887;DHT22;9069;52.044;7.472;2023-07-31T14:11:38;22.80;98.80
17887;DHT22;9069;52.044;7.472;2023-07-31T14:14:09;22.90;98.90
17887;DHT22;9069;52.044;7.472;2023-07-31T14:16:36;22.90;99.00
17887;DHT22;9069;52.044;7.472;2023-07-31T14:19:04;23.00;99.00
17887;DHT22;9069;52.044;7.472;2023-07-31T14:21:31;23.00;99.00
17887;DHT22;9069;52.044;7.472;2023-07-31T14:23:58;23.10;99.00
17887;DHT22;9069;52.044;7.472;2023-07-31T14:26:24;23.10;99.20
17887;DHT22;9069;52.044;7.472;2023-07-31T14:28:51;23.20;98.80
17887;DHT22;9069;52.044;7.472;2023-07-31T14:31:18;23.20;98.70
17887;DHT22;9069;52.044;7.472;2023-07-31T14:33:45;23.30;98.70
17887;DHT22;9069;52.044;7.472;2023-07-31T14:36:11;23.30;98.60
17887;DHT22;9069;52.044;7.472;2023-07-31T14:38:38;23.40;98.40
17887;DHT22;9069;52.044;7.472;2023-07-31T14:41:05;23.40;98.30
17887;DHT22;9069;52.044;7.472;2023-07-31T14:43:32;23.40;98.10
17887;DHT22;9069;52.044;7.472;2023-07-31T14:45:58;23.40;98.00
17887;DHT22;9069;52.044;7.472;2023-07-31T14:48:26;23.40;97.90
17887;DHT22;9069;52.044;7.472;2023-07-31T14:50:53;23.40;97.80
17887;DHT22;9069;52.044;7.472;2023-07-31T14:53:21;23.40;97.70
17887;DHT22;9069;52.044;7.472;2023-07-31T14:55:48;23.40;97.70
17887;DHT22;9069;52.044;7.472;2023-07-31T14:58:15;23.40;97.80
17887;DHT22;9069;52.044;7.472;2023-07-31T15:00:44;23.30;97.80
17887;DHT22;9069;52.044;7.472;2023-07-31T15:03:10;23.40;97.80
17887;DHT22;9069;52.044;7.472;2023-07-31T15:05:37;23.30;97.90
17887;DHT22;9069;52.044;7.472;2023-07-31T15:08:04;23.20;97.80
17887;DHT22;9069;52.044;7.472;2023-07-31T15:10:31;23.20;97.80
17887;DHT22;9069;52.044;7.472;2023-07-31T15:12:58;23.20;97.80
17887;DHT22;9069;52.044;7.472;2023-07-31T15:15:25;23.20;97.90
17887;DHT22;9069;52.044;7.472;2023-07-31T15:17:52;23.10;97.90
17887;DHT22;9069;52.044;7.472;2023-07-31T15:20:19;23.00;97.90
17887;DHT22;9069;52.044;7.472;2023-07-31T15:22:46;23.00;98.00
17887;DHT22;9069;52.044;7.472;2023-07-31T15:25:13;23.00;98.00
17887;DHT22;9069;52.044;7.472;2023-07-31T15:27:40;23.00;98.10
17887;DHT22;9069;52.044;7.472;2023-07-31T15:30:07;22.90;98.20
17887;DHT22;9069;52.044;7.472;2023-07-31T15:32:34;22.90;98.30
17887;DHT22;9069;52.044;7.472;2023-07-31T15:35:03;22.90;98.30
17887;DHT22;9069;52.044;7.472;2023-07-31T15:37:30;22.80;98.70
17887;DHT22;9069;52.044;7.472;2023-07-31T15:39:57;22.80;98.50
17887;DHT22;9069;52.044;7.472;2023-07-31T15:42:23;22.80;98.40
17887;DHT22;9069;52.044;7.472;2023-07-31T15:44:50;22.80;98.50
17887;DHT22;9069;52.044;7.472;2023-07-31T15:47:17;22.70;98.50
17887;DHT22;9069;52.044;7.472;2023-07-31T15:49:43;22.70;98.40
17887;DHT22;9069;52.044;7.472;2023-07-31T15:52:10;22.70;98.50
17887;DHT22;9069;52.044;7.472;2023-07-31T15:54:37;22.70;98.60
17887;DHT22;9069;52.044;7.472;2023-07-31T15:57:04;22.60;98.50
17887;DHT22;9069;52.044;7.472;2023-07-31T15:59:31;22.60;98.60
17887;DHT22;9069;52.044;7.472;2023-07-31T16:01:57;22.60;98.60
17887;DHT22;9069;52.044;7.472;2023-07-31T16:04:24;22.50;98.60
17887;DHT22;9069;52.044;7.472;2023-07-31T16:06:51;22.50;98.70